Time;durP1;ratioP1;P1;durP2;ratioP2;P2;SDS_P1;SDS_P2;PMS_P1;PMS_P2;Temp;Humidity;BMP_temperature;BMP_pressure;BME280_temperature;BME280_humidity;BME280_pressure;Samples;Min_cycle;Max_cycle;Signal;HPM_P1;HPM_P2
2022/10/09 00:00:06;;;;;;;;;10.67;9.00;;;;;13.22;52.38;102038.84;5037361;28;45346;-43
2022/10/09 00:02:31;;;;;;;;;9.00;7.67;;;;;13.23;52.16;102037.03;5036907;28;47142;-43
2022/10/09 00:04:56;;;;;;;;;14.00;9.67;;;;;13.22;52.02;102040.66;5036889;28;45350;-46
2022/10/09 00:07:22;;;;;;;;;13.00;7.33;;;;;13.19;52.07;102035.59;5037107;28;45309;-44
2022/10/09 00:09:47;;;;;;;;;7.33;7.33;;;;;13.17;52.17;102037.53;5037334;28;45223;-43
2022/10/09 00:12:12;;;;;;;;;7.67;5.00;;;;;13.12;52.49;102037.94;5036762;28;45254;-45
2022/10/09 00:14:38;;;;;;;;;8.00;7.67;;;;;13.06;52.63;102024.25;5036776;28;45461;-44
2022/10/09 00:17:03;;;;;;;;;8.00;7.67;;;;;13.07;52.35;102031.31;5037027;28;45423;-43
2022/10/09 00:19:28;;;;;;;;;6.00;6.00;;;;;13.05;52.48;102035.91;5037165;28;45312;-49
2022/10/09 00:21:54;;;;;;;;;8.00;6.33;;;;;13.02;52.31;102028.16;5036699;28;46298;-45
2022/10/09 00:24:19;;;;;;;;;8.33;8.00;;;;;12.97;52.48;102020.53;5036704;28;45202;-44
2022/10/09 00:26:46;;;;;;;;;15.00;9.33;;;;;12.97;53.01;102026.72;5036699;28;45214;-44
2022/10/09 00:29:11;;;;;;;;;9.67;8.33;;;;;12.96;53.18;102027.72;5036960;28;45382;-45
2022/10/09 00:31:37;;;;;;;;;9.00;5.67;;;;;12.97;53.14;102031.22;5036619;28;45269;-44
2022/10/09 00:34:02;;;;;;;;;11.00;10.00;;;;;12.95;53.69;102020.69;5036631;28;45407;-47
2022/10/09 00:36:28;;;;;;;;;9.00;6.33;;;;;12.96;53.36;102024.19;5036924;28;45848;-44
2022/10/09 00:38:54;;;;;;;;;13.33;11.00;;;;;12.96;53.72;102027.72;5036834;28;45441;-46
2022/10/09 00:41:22;;;;;;;;;8.00;8.00;;;;;12.98;53.29;102028.44;5037064;28;45483;-42
2022/10/09 00:43:52;;;;;;;;;8.33;8.00;;;;;13.01;53.63;102023.78;5038067;28;45512;-44
2022/10/09 00:46:30;;;;;;;;;10.00;9.00;;;;;13.04;53.27;102021.72;5037628;28;45337;-44
2022/10/09 00:49:00;;;;;;;;;10.33;8.33;;;;;13.05;53.43;102020.72;5036769;28;45414;-43
2022/10/09 00:51:27;;;;;;;;;9.33;8.67;;;;;13.09;53.67;102021.31;5034976;28;46432;-44
2022/10/09 00:53:52;;;;;;;;;4.67;4.67;;;;;13.06;53.59;102014.44;5036307;28;45498;-42
2022/10/09 00:56:18;;;;;;;;;9.67;7.00;;;;;13.05;53.81;102009.19;5036440;28;45703;-44
2022/10/09 00:58:47;;;;;;;;;12.33;7.33;;;;;13.08;53.78;102019.63;5036676;28;45328;-43
2022/10/09 01:01:13;;;;;;;;;7.00;5.33;;;;;13.08;53.60;102024.97;5036396;28;45359;-44
2022/10/09 01:03:39;;;;;;;;;11.33;7.00;;;;;13.06;53.32;102018.91;5018138;28;45341;-44
2022/10/09 01:06:04;;;;;;;;;6.00;4.00;;;;;13.03;53.41;102017.34;5036782;28;45343;-43
2022/10/09 01:08:38;;;;;;;;;8.00;8.00;;;;;13.01;53.55;102024.63;5036488;28;45295;-44
2022/10/09 01:11:13;;;;;;;;;10.33;6.00;;;;;12.98;53.46;102007.06;5038768;28;45372;-41
2022/10/09 01:14:03;;;;;;;;;13.33;7.00;;;;;12.97;53.61;102004.50;5039348;28;45305;-42
2022/10/09 01:16:43;;;;;;;;;9.00;4.00;;;;;12.94;53.74;101997.63;5039643;28;45384;-41
2022/10/09 01:19:30;;;;;;;;;8.00;6.00;;;;;12.90;53.11;101995.34;5039979;28;45396;-41
2022/10/09 01:22:26;;;;;;;;;7.33;5.33;;;;;12.86;53.79;101997.44;5039283;28;46167;-43
2022/10/09 01:25:07;;;;;;;;;7.00;4.00;;;;;12.80;54.37;101989.09;5039477;28;45362;-48
2022/10/09 01:27:35;;;;;;;;;6.00;4.00;;;;;12.79;54.15;101982.91;5039347;28;45451;-42
2022/10/09 01:30:05;;;;;;;;;8.00;5.33;;;;;12.78;53.95;101986.56;5039550;28;45396;-43
2022/10/09 01:32:36;;;;;;;;;7.33;4.00;;;;;12.78;54.72;101975.88;5039018;28;46077;-43
2022/10/09 01:35:04;;;;;;;;;8.00;7.00;;;;;12.77;54.72;101973.31;5039365;28;45592;-45
2022/10/09 01:37:32;;;;;;;;;8.67;4.00;;;;;12.72;54.49;101971.91;5038977;28;45373;-43
2022/10/09 01:39:58;;;;;;;;;3.00;3.00;;;;;12.70;54.66;101973.00;5039655;28;45229;-42
2022/10/09 01:42:27;;;;;;;;;4.00;4.00;;;;;12.58;54.42;101952.69;5039069;28;45320;-42
2022/10/09 01:44:52;;;;;;;;;2.00;2.00;;;;;12.62;54.35;101962.13;5039113;28;45445;-42
2022/10/09 01:47:20;;;;;;;;;4.00;4.00;;;;;12.62;54.48;101957.63;5039241;28;45273;-44
2022/10/09 01:49:50;;;;;;;;;7.00;4.00;;;;;12.60;54.27;101948.06;5039507;28;45439;-41
2022/10/09 01:52:39;;;;;;;;;3.33;3.33;;;;;12.53;54.67;101947.75;5038732;28;47190;-43
2022/10/09 01:55:12;;;;;;;;;6.00;4.00;;;;;12.49;54.99;101940.97;5038905;28;45246;-42
2022/10/09 01:57:38;;;;;;;;;4.00;4.00;;;;;12.48;54.18;101937.47;5038860;28;45343;-42
2022/10/09 02:00:08;;;;;;;;;4.00;4.00;;;;;12.46;54.61;101942.06;5039227;28;45364;-42
2022/10/09 02:02:35;;;;;;;;;4.00;4.00;;;;;12.40;55.19;101937.25;5039018;28;46123;-42
2022/10/09 02:05:00;;;;;;;;;3.00;3.00;;;;;12.34;55.13;101927.09;5038673;28;45316;-44
2022/10/09 02:07:28;;;;;;;;;4.00;4.00;;;;;12.33;55.23;101924.56;5038946;28;45438;-43
2022/10/09 02:09:55;;;;;;;;;3.67;2.00;;;;;12.28;55.27;101918.78;5039175;28;45332;-42
2022/10/09 02:12:24;;;;;;;;;6.00;3.00;;;;;12.20;55.59;101912.25;5020883;28;45720;-44
2022/10/09 02:14:49;;;;;;;;;5.33;4.00;;;;;12.23;55.56;101916.50;5038517;28;45266;-44
2022/10/09 02:17:25;;;;;;;;;3.67;3.33;;;;;12.20;55.73;101914.91;5038651;28;45337;-43
2022/10/09 02:19:56;;;;;;;;;6.67;4.00;;;;;12.10;56.09;101895.34;5039005;28;45436;-45
2022/10/09 02:22:27;;;;;;;;;7.00;5.33;;;;;12.07;55.88;101895.59;5037043;28;45293;-41
2022/10/09 02:24:55;;;;;;;;;6.00;4.67;;;;;12.19;55.66;101905.22;5038278;28;45419;-43
2022/10/09 02:27:21;;;;;;;;;5.33;3.33;;;;;12.17;55.73;101901.81;5037815;28;45321;-46
2022/10/09 02:29:48;;;;;;;;;6.33;4.33;;;;;12.18;55.89;101903.53;5038536;28;45436;-44
2022/10/09 02:32:13;;;;;;;;;6.00;3.00;;;;;12.16;56.08;101908.16;5038509;28;45277;-43
2022/10/09 02:34:39;;;;;;;;;7.33;6.00;;;;;12.12;55.30;101901.38;5038202;28;45369;-45
2022/10/09 02:37:06;;;;;;;;;7.00;6.00;;;;;12.11;55.51;101898.84;5038515;28;45367;-43
2022/10/09 02:39:31;;;;;;;;;4.33;3.00;;;;;12.08;56.16;101901.75;5038643;28;45486;-42
2022/10/09 02:41:57;;;;;;;;;8.00;4.33;;;;;12.05;56.31;101894.88;5037931;28;46186;-43
2022/10/09 02:44:22;;;;;;;;;6.33;3.00;;;;;12.03;56.50;101891.47;5038098;28;45503;-43
2022/10/09 02:46:47;;;;;;;;;4.33;4.33;;;;;12.03;56.29;101896.81;5038401;28;45251;-46
2022/10/09 02:49:13;;;;;;;;;3.00;3.00;;;;;12.02;56.45;101884.47;5038452;28;45541;-46
2022/10/09 02:51:38;;;;;;;;;4.67;3.33;;;;;12.01;56.18;101880.09;5037971;28;45966;-43
2022/10/09 02:54:04;;;;;;;;;4.33;4.33;;;;;11.98;56.41;101875.03;5037726;28;45270;-43
2022/10/09 02:56:29;;;;;;;;;4.00;4.00;;;;;11.99;56.69;101882.88;5038287;28;45337;-47
2022/10/09 02:58:55;;;;;;;;;3.67;3.67;;;;;11.92;56.39;101879.03;5038179;28;45667;-44
2022/10/09 03:01:20;;;;;;;;;3.00;3.00;;;;;11.90;56.33;101872.16;5038038;28;46106;-44
2022/10/09 03:03:46;;;;;;;;;6.00;3.67;;;;;11.89;56.44;101870.47;5037766;28;45333;-43
2022/10/09 03:06:14;;;;;;;;;2.67;2.67;;;;;11.84;56.37;101867.31;5038062;28;45728;-43
2022/10/09 03:08:43;;;;;;;;;3.00;3.00;;;;;11.83;56.49;101869.13;5038487;28;45325;-44
2022/10/09 03:11:10;;;;;;;;;5.33;3.33;;;;;11.79;56.98;101870.31;5037843;28;46099;-44
2022/10/09 03:13:36;;;;;;;;;7.00;4.33;;;;;11.76;56.94;101856.44;5037679;28;45451;-43
2022/10/09 03:16:03;;;;;;;;;8.00;6.00;;;;;11.73;56.64;101858.38;5037915;28;45294;-42
2022/10/09 03:18:29;;;;;;;;;5.33;2.00;;;;;11.73;57.09;101858.38;5037981;28;45487;-42
2022/10/09 03:20:54;;;;;;;;;2.00;2.00;;;;;11.69;57.51;101850.75;5036743;28;46266;-42
2022/10/09 03:23:20;;;;;;;;;6.00;5.50;;;;;11.67;56.79;101855.34;5037965;28;45257;-43
2022/10/09 03:25:56;;;;;;;;;8.00;4.67;;;;;11.66;57.08;101856.31;5019763;28;45241;-43
2022/10/09 03:28:22;;;;;;;;;5.33;3.00;;;;;11.57;57.29;101836.59;5037947;28;45322;-43
2022/10/09 03:30:47;;;;;;;;;6.00;3.00;;;;;11.64;57.55;101856.47;5037265;28;46365;-43
2022/10/09 03:33:12;;;;;;;;;4.33;3.00;;;;;11.57;57.41;101847.28;5037054;28;45336;-42
2022/10/09 03:35:38;;;;;;;;;7.00;5.00;;;;;11.50;57.35;101840.75;5037750;28;45367;-43
2022/10/09 03:38:03;;;;;;;;;3.67;3.67;;;;;11.55;57.77;101848.38;5037703;28;45222;-43
2022/10/09 03:40:28;;;;;;;;;6.00;3.33;;;;;11.49;57.67;101844.38;5037486;28;45436;-43
2022/10/09 03:42:54;;;;;;;;;3.00;3.00;;;;;11.47;58.02;101843.69;5037358;28;45398;-43
2022/10/09 03:45:19;;;;;;;;;6.00;6.00;;;;;11.43;57.91;101835.09;5037362;28;45292;-41
2022/10/09 03:47:44;;;;;;;;;10.00;6.00;;;;;11.43;58.06;101844.91;5037599;28;45419;-43
2022/10/09 03:50:10;;;;;;;;;3.00;3.00;;;;;11.40;57.73;101845.16;5037107;28;45506;-45
2022/10/09 03:52:35;;;;;;;;;10.00;6.00;;;;;11.32;57.92;101836.94;5037076;28;46013;-42
2022/10/09 03:55:01;;;;;;;;;6.00;6.00;;;;;11.32;58.51;101839.59;5037252;28;45407;-42
2022/10/09 03:57:26;;;;;;;;;6.00;6.00;;;;;11.28;58.05;101833.66;5037328;28;45450;-43
2022/10/09 03:59:51;;;;;;;;;5.00;5.00;;;;;11.32;57.55;101840.44;5037009;28;46026;-42
2022/10/09 04:02:17;;;;;;;;;5.67;5.67;;;;;11.32;57.65;101844.91;5037048;28;45289;-44
2022/10/09 04:04:42;;;;;;;;;7.67;5.67;;;;;11.29;57.85;101839.81;5037089;28;45418;-42
2022/10/09 04:07:08;;;;;;;;;2.33;2.00;;;;;11.24;57.91;101841.03;5037414;28;45313;-43
2022/10/09 04:09:33;;;;;;;;;9.00;4.00;;;;;11.18;58.16;101836.22;5036769;28;46805;-42
2022/10/09 04:11:58;;;;;;;;;5.67;4.67;;;;;11.17;58.50;101839.03;5037024;28;45192;-43
2022/10/09 04:14:24;;;;;;;;;8.67;6.00;;;;;11.15;57.80;101839.13;5036902;28;45250;-44
2022/10/09 04:16:49;;;;;;;;;10.67;7.00;;;;;11.13;58.54;101824.28;5037625;28;45297;-45
2022/10/09 04:19:14;;;;;;;;;7.00;4.00;;;;;11.09;58.34;101828.16;5037465;28;45276;-43
2022/10/09 04:21:39;;;;;;;;;8.00;6.00;;;;;11.08;58.84;101831.75;5037163;28;45534;-43
2022/10/09 04:24:07;;;;;;;;;13.00;8.00;;;;;11.04;58.86;101831.19;5037051;28;45492;-42
2022/10/09 04:26:33;;;;;;;;;7.00;3.00;;;;;11.02;59.11;101833.09;5037271;28;45351;-50
2022/10/09 04:28:59;;;;;;;;;7.00;5.67;;;;;11.00;59.07;101824.41;5036483;28;46712;-42
2022/10/09 04:31:24;;;;;;;;;6.00;4.33;;;;;11.02;58.49;101830.44;5036605;28;45427;-42
2022/10/09 04:33:49;;;;;;;;;5.33;4.00;;;;;10.98;58.43;101819.19;5036588;28;45308;-43
2022/10/09 04:36:15;;;;;;;;;4.00;4.00;;;;;10.99;58.81;101825.34;5037018;28;45447;-43
2022/10/09 04:38:40;;;;;;;;;5.00;5.00;;;;;10.98;58.45;101827.19;5036600;28;45387;-43
2022/10/09 04:41:06;;;;;;;;;5.67;3.33;;;;;10.95;58.62;101823.91;5036518;28;45376;-44
2022/10/09 04:43:33;;;;;;;;;5.33;3.67;;;;;10.97;58.55;101821.97;5036783;28;45526;-43
2022/10/09 04:46:03;;;;;;;;;8.00;7.00;;;;;10.89;58.10;101811.09;5039676;28;45303;-42
2022/10/09 04:48:28;;;;;;;;;6.00;3.00;;;;;10.98;58.67;101819.19;5040136;28;46626;-42
2022/10/09 04:50:54;;;;;;;;;5.67;4.33;;;;;10.98;58.41;101821.00;5039908;28;45277;-42
2022/10/09 04:53:19;;;;;;;;;5.33;3.00;;;;;10.96;57.92;101809.66;5039629;28;45321;-42
2022/10/09 04:55:44;;;;;;;;;3.00;3.00;;;;;10.98;58.50;101821.84;5040346;28;45292;-43
2022/10/09 04:58:11;;;;;;;;;6.00;5.67;;;;;10.98;58.43;101824.50;5039621;28;46189;-42
2022/10/09 05:00:41;;;;;;;;;7.00;3.00;;;;;10.89;58.27;101803.13;5040015;28;45383;-43
2022/10/09 05:03:07;;;;;;;;;8.33;5.33;;;;;10.86;58.70;101793.53;5040010;28;45340;-43
2022/10/09 05:05:32;;;;;;;;;7.00;6.00;;;;;10.92;58.43;101809.03;5040059;28;45354;-43
2022/10/09 05:07:58;;;;;;;;;5.00;5.00;;;;;10.94;58.45;101819.56;5039844;28;46099;-43
2022/10/09 05:10:23;;;;;;;;;4.00;3.00;;;;;10.92;58.07;101802.88;5039770;28;45394;-44
2022/10/09 05:12:48;;;;;;;;;5.67;3.00;;;;;10.91;58.44;101809.16;5039653;28;45305;-43
2022/10/09 05:15:14;;;;;;;;;5.00;2.67;;;;;10.84;58.73;101794.66;5039960;28;45430;-43
2022/10/09 05:17:39;;;;;;;;;7.00;6.67;;;;;10.86;58.27;101798.03;5039434;28;46168;-43
2022/10/09 05:20:05;;;;;;;;;6.00;3.00;;;;;10.84;58.56;101797.31;5039541;28;45369;-44
2022/10/09 05:22:30;;;;;;;;;5.33;3.67;;;;;10.82;58.52;101794.75;5039636;28;45476;-42
2022/10/09 05:24:55;;;;;;;;;4.33;3.67;;;;;10.83;58.62;101792.94;5039708;28;45304;-44
2022/10/09 05:27:21;;;;;;;;;3.67;3.67;;;;;10.83;58.25;101792.94;5039266;28;46066;-43
2022/10/09 05:29:46;;;;;;;;;5.00;5.00;;;;;10.82;59.01;101793.91;5039321;28;45300;-43
2022/10/09 05:32:12;;;;;;;;;6.33;6.00;;;;;10.77;58.97;101788.97;5039659;28;45629;-43
2022/10/09 05:34:37;;;;;;;;;5.67;4.33;;;;;10.81;58.38;101794.91;5039641;28;45348;-43
2022/10/09 05:37:02;;;;;;;;;6.33;5.33;;;;;10.81;58.96;101789.56;5039451;28;45269;-43
2022/10/09 05:39:28;;;;;;;;;5.67;5.67;;;;;10.81;58.96;101790.41;5039367;28;46008;-43
2022/10/09 05:41:53;;;;;;;;;7.00;5.00;;;;;10.81;58.86;101787.75;5039192;28;45215;-44
2022/10/09 05:44:18;;;;;;;;;5.67;5.00;;;;;10.77;58.97;101780.97;5039427;28;45233;-42
2022/10/09 05:46:44;;;;;;;;;6.33;3.33;;;;;10.79;58.77;101787.03;5039066;28;47193;-45
2022/10/09 05:49:10;;;;;;;;;6.00;3.67;;;;;10.82;58.72;101789.44;5039379;28;45229;-42
2022/10/09 05:51:38;;;;;;;;;6.33;6.33;;;;;10.82;58.44;101784.09;5039227;28;45239;-42
2022/10/09 05:54:05;;;;;;;;;5.00;3.00;;;;;10.83;59.07;101785.81;5039061;28;45388;-44
2022/10/09 05:56:34;;;;;;;;;7.67;6.00;;;;;10.80;58.87;101782.56;5038764;28;46530;-42
2022/10/09 05:59:03;;;;;;;;;4.33;4.33;;;;;10.80;58.43;101772.75;5038888;28;45313;-42
2022/10/09 06:01:36;;;;;;;;;3.00;3.00;;;;;10.85;58.31;101786.53;5038846;28;45415;-43
2022/10/09 06:04:03;;;;;;;;;7.00;3.67;;;;;10.85;58.53;101777.72;5039117;28;45406;-43
2022/10/09 06:06:31;;;;;;;;;6.00;3.00;;;;;10.82;58.21;101775.28;5038701;28;45365;-44
2022/10/09 06:08:57;;;;;;;;;6.00;3.00;;;;;10.84;58.68;101778.69;5038578;28;45383;-43
2022/10/09 06:11:30;;;;;;;;;6.67;4.33;;;;;10.83;58.79;101771.66;5038808;28;45304;-47
2022/10/09 06:13:57;;;;;;;;;2.33;2.33;;;;;10.71;58.43;101758.38;5038937;28;45472;-43
2022/10/09 06:16:24;;;;;;;;;3.00;3.00;;;;;10.86;58.71;101779.41;5038284;28;46216;-45
2022/10/09 06:18:51;;;;;;;;;7.67;6.00;;;;;10.86;58.74;101771.41;5038738;28;45424;-45
2022/10/09 06:21:17;;;;;;;;;6.00;3.00;;;;;10.89;58.12;101781.81;5038860;28;45440;-43
2022/10/09 06:23:42;;;;;;;;;7.00;3.00;;;;;10.78;58.24;101755.19;5038957;28;45503;-47
2022/10/09 06:26:12;;;;;;;;;8.00;6.00;;;;;10.89;58.63;101776.50;5038423;28;46809;-47
2022/10/09 06:28:38;;;;;;;;;7.67;6.00;;;;;10.78;58.78;101763.19;5038653;28;45296;-46
2022/10/09 06:31:08;;;;;;;;;5.67;5.67;;;;;10.88;58.52;101773.00;5038474;28;45305;-43
2022/10/09 06:33:35;;;;;;;;;7.00;5.33;;;;;10.89;58.61;101773.84;5038503;28;45550;-48
2022/10/09 06:36:04;;;;;;;;;7.33;7.33;;;;;10.89;58.71;101772.00;5038325;28;45385;-42
2022/10/09 06:38:29;;;;;;;;;7.67;6.00;;;;;10.88;58.04;101766.81;5038366;28;45375;-42
2022/10/09 06:40:59;;;;;;;;;7.00;6.00;;;;;10.90;58.57;101778.19;5020708;28;45225;-43
2022/10/09 06:43:25;;;;;;;;;10.00;7.00;;;;;10.84;58.22;101757.41;5038601;28;45359;-43
2022/10/09 06:45:50;;;;;;;;;7.00;5.00;;;;;10.92;58.46;101770.94;5037943;28;46089;-41
2022/10/09 06:48:15;;;;;;;;;3.00;3.00;;;;;10.90;57.99;101759.53;5037980;28;45269;-43
2022/10/09 06:50:41;;;;;;;;;8.00;5.00;;;;;10.90;57.86;101771.03;5038452;28;45395;-42
2022/10/09 06:53:06;;;;;;;;;8.00;3.67;;;;;10.93;58.56;101780.59;5037861;28;45471;-42
2022/10/09 06:55:31;;;;;;;;;5.00;5.00;;;;;10.83;57.66;101761.88;5038045;28;45407;-43
2022/10/09 06:57:58;;;;;;;;;5.33;5.00;;;;;10.97;58.50;101776.72;5037318;28;45322;-42
2022/10/09 07:00:23;;;;;;;;;10.33;5.67;;;;;10.99;58.21;101772.94;5037945;28;45884;-41
2022/10/09 07:02:49;;;;;;;;;6.00;6.00;;;;;11.02;58.50;101777.19;5038297;28;45362;-42
2022/10/09 07:05:14;;;;;;;;;6.00;5.00;;;;;11.03;58.27;101768.22;5037606;28;47186;-45
2022/10/09 07:07:41;;;;;;;;;13.33;6.00;;;;;11.08;58.09;101767.84;5037068;28;45423;-43
2022/10/09 07:10:07;;;;;;;;;9.67;4.33;;;;;11.11;57.96;101764.94;5038216;28;45455;-42
2022/10/09 07:12:34;;;;;;;;;6.00;6.00;;;;;11.14;57.63;101767.38;5038083;28;45392;-44
2022/10/09 07:14:59;;;;;;;;;7.67;6.00;;;;;11.17;58.15;101764.47;5037787;28;46616;-45
2022/10/09 07:17:26;;;;;;;;;6.00;6.00;;;;;11.21;57.94;101761.41;5037811;28;45330;-42
2022/10/09 07:19:51;;;;;;;;;7.00;7.00;;;;;11.23;57.74;101762.13;5037348;28;45416;-42
2022/10/09 07:22:16;;;;;;;;;6.33;6.00;;;;;11.23;57.92;101759.47;5037943;28;45352;-42
2022/10/09 07:24:42;;;;;;;;;7.33;4.00;;;;;11.27;57.75;101748.56;5037548;28;46308;-44
2022/10/09 07:27:07;;;;;;;;;5.33;5.33;;;;;11.30;57.87;101753.66;5037837;28;45312;-43
2022/10/09 07:29:32;;;;;;;;;7.00;6.00;;;;;11.27;57.96;101745.91;5036454;28;45375;-43
2022/10/09 07:31:58;;;;;;;;;7.33;6.00;;;;;11.35;57.92;101754.09;5037749;28;45455;-44
2022/10/09 07:34:23;;;;;;;;;8.67;6.33;;;;;11.40;57.83;101749.22;5037485;28;45896;-42
2022/10/09 07:36:48;;;;;;;;;8.00;6.00;;;;;11.41;57.86;101750.91;5037343;28;45438;-42
2022/10/09 07:39:17;;;;;;;;;8.00;6.00;;;;;11.43;57.90;101748.97;5037741;28;45439;-43
2022/10/09 07:41:43;;;;;;;;;7.00;7.00;;;;;11.50;57.79;101744.81;5037719;28;45343;-43
2022/10/09 07:44:10;;;;;;;;;7.00;5.33;;;;;11.55;57.05;101752.44;5036962;28;46175;-43
2022/10/09 07:46:35;;;;;;;;;7.67;4.00;;;;;11.44;57.91;101722.19;5037186;28;45350;-43
2022/10/09 07:49:02;;;;;;;;;7.33;6.67;;;;;11.60;57.61;101745.75;5037349;28;45246;-43
2022/10/09 07:51:28;;;;;;;;;9.33;6.33;;;;;11.64;57.22;101751.69;5037669;28;45407;-42
2022/10/09 07:53:56;;;;;;;;;7.33;6.00;;;;;11.70;57.31;101749.31;5019293;28;46897;-44
2022/10/09 07:56:27;;;;;;;;;7.00;7.00;;;;;11.72;56.79;101736.72;5037422;28;45479;-43
2022/10/09 07:58:57;;;;;;;;;7.33;6.00;;;;;11.80;57.06;101738.75;5037982;28;45294;-44
2022/10/09 08:01:23;;;;;;;;;10.67;8.00;;;;;11.86;57.13;101732.06;5037737;28;45436;-45
2022/10/09 08:03:49;;;;;;;;;6.67;5.67;;;;;11.89;57.17;101729.16;5037094;28;46571;-42
2022/10/09 08:06:16;;;;;;;;;7.33;5.67;;;;;12.01;56.81;101733.44;5036933;28;45300;-43
2022/10/09 08:08:42;;;;;;;;;7.67;5.67;;;;;12.14;56.80;101738.56;5037070;28;45288;-43
2022/10/09 08:11:09;;;;;;;;;8.67;6.00;;;;;12.26;56.48;101734.78;5037188;28;45291;-43
2022/10/09 08:13:34;;;;;;;;;4.33;4.33;;;;;12.38;56.15;101731.06;5036979;28;46105;-44
2022/10/09 08:16:00;;;;;;;;;9.00;6.00;;;;;12.54;56.16;101725.22;5036779;28;45245;-43
2022/10/09 08:18:25;;;;;;;;;9.33;6.00;;;;;12.72;56.05;101728.09;5037217;28;45230;-45
2022/10/09 08:21:05;;;;;;;;;8.00;8.00;;;;;12.93;55.09;101722.66;5037200;28;45236;-42
2022/10/09 08:23:31;;;;;;;;;7.33;5.33;;;;;13.80;54.44;101720.00;5036935;28;46501;-43
2022/10/09 08:25:56;;;;;;;;;6.33;5.67;;;;;16.09;50.05;101720.63;5036751;28;45247;-43
2022/10/09 08:28:22;;;;;;;;;5.00;5.00;;;;;18.10;45.39;101705.22;5036892;28;45266;-43
2022/10/09 08:30:48;;;;;;;;;7.67;5.00;;;;;19.75;41.79;101708.63;5036921;28;45422;-42
2022/10/09 08:33:13;;;;;;;;;10.00;7.67;;;;;20.50;39.64;101705.78;5036624;28;46161;-43
2022/10/09 08:35:39;;;;;;;;;7.33;4.67;;;;;21.76;38.76;101700.84;5036605;28;45318;-42
2022/10/09 08:38:04;;;;;;;;;7.00;7.00;;;;;22.87;36.94;101690.78;5037022;28;45377;-45
2022/10/09 08:40:54;;;;;;;;;6.00;6.00;;;;;23.72;34.52;101682.94;5036922;28;45247;-44
2022/10/09 08:43:31;;;;;;;;;9.33;4.00;;;;;24.34;33.91;101682.38;5036558;28;46401;-50
2022/10/09 08:46:01;;;;;;;;;9.25;6.50;;;;;24.19;33.39;101679.09;5036333;28;45325;-43
2022/10/09 08:48:28;;;;;;;;;8.00;7.25;;;;;23.73;33.71;101677.31;5036554;28;45510;-43
2022/10/09 08:50:57;;;;;;;;;10.50;7.75;;;;;23.31;36.04;101673.13;5036652;28;45504;-44
2022/10/09 08:53:41;;;;;;;;;7.50;7.50;;;;;23.04;37.58;101667.66;5036078;28;47237;-47
2022/10/09 08:56:12;;;;;;;;;8.00;6.60;;;;;23.04;37.94;101666.81;5036386;28;45326;-44
2022/10/09 08:58:39;;;;;;;;;8.50;7.00;;;;;23.07;35.06;101667.25;5036551;28;45289;-43
2022/10/09 09:01:10;;;;;;;;;10.00;7.00;;;;;23.24;35.04;101662.25;5036483;28;45325;-42
2022/10/09 09:04:06;;;;;;;;;6.50;6.25;;;;;23.67;35.17;101655.59;5035929;28;47243;-45
2022/10/09 09:06:57;;;;;;;;;6.80;6.40;;;;;24.53;34.81;101653.47;5036294;28;45355;-42
2022/10/09 09:09:46;;;;;;;;;7.00;7.00;;;;;25.76;31.22;101654.88;5036338;28;45890;-44
2022/10/09 09:12:14;;;;;;;;;9.00;7.00;;;;;26.99;29.83;101645.56;5036578;28;45393;-44
2022/10/09 09:15:02;;;;;;;;;13.50;10.00;;;;;27.93;28.59;101643.75;5036043;28;45393;-44
2022/10/09 09:17:45;;;;;;;;;21.00;20.25;;;;;28.50;29.01;101643.84;5035700;28;45241;-43
2022/10/09 09:20:19;;;;;;;;;32.75;29.25;;;;;28.93;27.30;101627.94;5036234;28;45381;-42
2022/10/09 09:22:47;;;;;;;;;36.33;31.33;;;;;29.46;25.90;101635.69;5036356;28;45368;-41
2022/10/09 09:25:19;;;;;;;;;13.50;13.50;;;;;29.62;26.26;101627.69;5035729;28;47174;-43
2022/10/09 09:27:45;;;;;;;;;76.00;59.00;;;;;29.74;24.58;101611.94;5035731;28;45258;-42
2022/10/09 09:30:19;;;;;;;;;98.00;76.50;;;;;30.34;24.86;101611.09;5036175;28;45379;-44
2022/10/09 09:32:53;;;;;;;;;47.33;35.33;;;;;30.73;26.16;101610.97;5039337;28;45399;-44
2022/10/09 09:35:36;;;;;;;;;17.80;14.00;;;;;31.19;24.01;101605.84;5039126;28;46374;-44
2022/10/09 09:38:02;;;;;;;;;9.20;7.60;;;;;31.60;23.32;101603.38;5039227;28;45307;-43
2022/10/09 09:40:33;;;;;;;;;12.25;9.00;;;;;31.95;23.42;101603.59;5039373;28;45628;-42
2022/10/09 09:43:00;;;;;;;;;8.00;6.00;;;;;32.39;23.07;101600.44;5038603;28;45524;-42
2022/10/09 09:45:27;;;;;;;;;7.00;7.00;;;;;32.52;21.95;101591.63;5039321;28;45471;-46
2022/10/09 09:47:58;;;;;;;;;4.80;4.20;;;;;32.68;22.16;101591.66;5039106;28;45340;-43
2022/10/09 09:50:38;;;;;;;;;6.00;5.20;;;;;33.04;21.79;101595.28;5039184;28;45408;-44
2022/10/09 09:53:26;;;;;;;;;4.80;4.80;;;;;32.76;22.64;101591.13;5018041;28;45429;-43
2022/10/09 09:55:53;;;;;;;;;5.00;5.00;;;;;32.84;22.04;101578.72;5019118;28;47304;-43
2022/10/09 09:58:19;;;;;;;;;6.80;6.40;;;;;33.26;22.10;101586.72;5019030;28;45286;-43
2022/10/09 10:01:00;;;;;;;;;8.80;7.60;;;;;33.41;21.66;101583.06;5019199;28;45312;-45
2022/10/09 10:03:26;;;;;;;;;6.20;4.20;;;;;33.67;20.80;101578.34;5019188;28;45435;-44
2022/10/09 10:05:52;;;;;;;;;6.25;4.50;;;;;33.57;21.30;101564.59;5019003;28;47087;-42
2022/10/09 10:08:23;;;;;;;;;5.00;5.00;;;;;33.66;20.88;101563.72;5018924;28;45311;-42
2022/10/09 10:10:51;;;;;;;;;4.80;2.20;;;;;33.78;20.69;101564.22;5019141;28;45399;-42
2022/10/09 10:13:24;;;;;;;;;6.20;6.00;;;;;33.82;21.08;101556.19;5019324;28;45575;-43
2022/10/09 10:15:55;;;;;;;;;6.60;5.20;;;;;33.72;20.89;101551.56;5018897;28;46403;-43
2022/10/09 10:18:24;;;;;;;;;6.40;5.00;;;;;33.15;21.80;101550.03;5018731;28;45387;-45
2022/10/09 10:20:51;;;;;;;;;4.80;4.80;;;;;32.21;22.67;101537.59;5018492;28;45457;-47
2022/10/09 10:23:43;;;;;;;;;4.60;3.40;;;;;31.65;24.65;101529.97;5018844;28;45312;-43
2022/10/09 10:26:35;;;;;;;;;4.80;3.80;;;;;31.29;23.95;101527.03;5018599;28;46022;-46
2022/10/09 10:29:08;;;;;;;;;4.60;4.00;;;;;30.97;24.41;101523.50;5018756;28;45319;-44
2022/10/09 10:32:01;;;;;;;;;4.80;3.40;;;;;30.67;24.58;101518.56;5018815;28;45263;-42
2022/10/09 10:34:56;;;;;;;;;3.00;3.00;;;;;30.63;25.40;101515.53;5018760;28;45455;-43
2022/10/09 10:37:30;;;;;;;;;4.00;4.00;;;;;30.58;24.29;101515.50;5014963;28;45317;-43
2022/10/09 10:40:03;;;;;;;;;3.00;3.00;;;;;30.66;24.58;101511.44;5018450;28;45402;-44
2022/10/09 10:42:46;;;;;;;;;4.80;4.80;;;;;30.74;25.13;101513.72;5017525;28;45316;-43
2022/10/09 10:45:18;;;;;;;;;4.20;4.20;;;;;30.78;24.28;101501.13;5018620;28;45397;-45
2022/10/09 10:47:52;;;;;;;;;3.00;3.00;;;;;31.09;27.01;101504.91;5018313;28;46319;-46
2022/10/09 10:50:19;;;;;;;;;5.40;4.00;;;;;31.22;24.11;101498.09;5018449;28;45395;-44
2022/10/09 10:52:56;;;;;;;;;4.80;4.20;;;;;31.75;23.34;101501.69;5023396;28;45412;-43
2022/10/09 10:55:29;;;;;;;;;10.20;7.00;;;;;33.27;22.24;101497.34;5038704;28;45184;-43
2022/10/09 10:58:25;;;;;;;;;5.00;4.00;;;;;35.92;20.78;101486.81;5038083;28;45422;-43
2022/10/09 11:01:26;;;;;;;;;5.40;4.00;;;;;38.13;18.12;101478.75;5038166;28;45328;-44
2022/10/09 11:03:57;;;;;;;;;4.00;4.00;;;;;39.59;16.60;101486.22;5038209;28;45413;-43
2022/10/09 11:06:34;;;;;;;;;4.20;2.80;;;;;40.20;15.62;101471.53;5038327;28;45243;-43
2022/10/09 11:09:32;;;;;;;;;5.40;4.20;;;;;41.16;15.15;101464.53;5037777;28;47199;-43
2022/10/09 11:12:35;;;;;;;;;4.40;4.40;;;;;41.77;16.05;101467.75;4976238;28;45404;-45
2022/10/09 11:15:06;;;;;;;;;1.00;1.00;;;;;41.67;14.60;101458.97;4937584;28;45443;-45
2022/10/09 11:17:43;;;;;;;;;4.20;2.60;;;;;41.88;14.23;101449.44;4937661;28;45375;-45
2022/10/09 11:20:37;;;;;;;;;4.00;2.20;;;;;42.47;14.58;101447.56;4937002;28;46048;-43
2022/10/09 11:23:15;;;;;;;;;3.20;3.20;;;;;42.55;13.95;101455.03;4937043;28;45313;-44
2022/10/09 11:25:58;;;;;;;;;2.60;2.60;;;;;42.80;13.54;101439.94;4937158;28;45513;-43
2022/10/09 11:28:29;;;;;;;;;2.20;1.80;;;;;43.09;14.13;101426.88;4937337;28;45568;-43
2022/10/09 11:31:17;;;;;;;;;3.00;3.00;;;;;43.44;13.98;101429.16;4936974;28;46531;-42
2022/10/09 11:33:49;;;;;;;;;5.80;4.20;;;;;43.47;13.79;101423.69;4936976;28;45595;-44